sensor_id;sensor_type;location;lat;lon;timestamp;P1;durP1;ratioP1;P2;durP2;ratioP2
76477;SDS011;65309;49.790;18.972;2023-04-24T00:04:52;4.97;;;3.13;;
76477;SDS011;65309;49.790;18.972;2023-04-24T00:09:55;8.82;;;4.07;;
76477;SDS011;65309;49.790;18.972;2023-04-24T00:14:57;5.55;;;3.90;;
76477;SDS011;65309;49.790;18.972;2023-04-24T00:19:59;3.95;;;3.30;;
76477;SDS011;65309;49.790;18.972;2023-04-24T00:25:05;5.18;;;3.50;;
76477;SDS011;65309;49.790;18.972;2023-04-24T00:30:07;3.88;;;3.30;;
76477;SDS011;65309;49.790;18.972;2023-04-24T00:35:10;7.63;;;3.40;;
76477;SDS011;65309;49.790;18.972;2023-04-24T00:40:14;4.38;;;3.25;;
76477;SDS011;65309;49.790;18.972;2023-04-24T00:45:16;4.13;;;3.38;;
76477;SDS011;65309;49.790;18.972;2023-04-24T00:55:24;7.28;;;3.22;;
76477;SDS011;65309;49.790;18.972;2023-04-24T01:00:27;5.70;;;3.15;;
76477;SDS011;65309;49.790;18.972;2023-04-24T01:05:29;3.67;;;3.25;;
76477;SDS011;65309;49.790;18.972;2023-04-24T01:10:33;6.40;;;3.13;;
76477;SDS011;65309;49.790;18.972;2023-04-24T01:15:38;5.07;;;3.25;;
76477;SDS011;65309;49.790;18.972;2023-04-24T01:20:40;5.78;;;3.78;;
76477;SDS011;65309;49.790;18.972;2023-04-24T01:25:45;4.07;;;2.65;;
76477;SDS011;65309;49.790;18.972;2023-04-24T01:30:48;4.85;;;3.10;;
76477;SDS011;65309;49.790;18.972;2023-04-24T01:35:50;3.25;;;2.72;;
76477;SDS011;65309;49.790;18.972;2023-04-24T01:40:53;4.40;;;3.50;;
76477;SDS011;65309;49.790;18.972;2023-04-24T01:45:55;3.55;;;2.95;;
76477;SDS011;65309;49.790;18.972;2023-04-24T01:50:57;5.18;;;3.22;;
76477;SDS011;65309;49.790;18.972;2023-04-24T01:56:02;4.72;;;2.70;;
76477;SDS011;65309;49.790;18.972;2023-04-24T02:01:05;6.15;;;3.58;;
76477;SDS011;65309;49.790;18.972;2023-04-24T02:06:08;5.35;;;3.35;;
76477;SDS011;65309;49.790;18.972;2023-04-24T02:11:11;7.00;;;3.25;;
76477;SDS011;65309;49.790;18.972;2023-04-24T02:16:13;3.30;;;2.42;;
76477;SDS011;65309;49.790;18.972;2023-04-24T02:21:15;4.85;;;3.10;;
76477;SDS011;65309;49.790;18.972;2023-04-24T02:26:18;4.53;;;2.90;;
76477;SDS011;65309;49.790;18.972;2023-04-24T02:31:20;4.70;;;2.95;;
76477;SDS011;65309;49.790;18.972;2023-04-24T02:36:22;6.38;;;3.33;;
76477;SDS011;65309;49.790;18.972;2023-04-24T02:41:26;4.38;;;3.10;;
76477;SDS011;65309;49.790;18.972;2023-04-24T02:46:32;5.57;;;3.78;;
76477;SDS011;65309;49.790;18.972;2023-04-24T02:51:34;5.30;;;3.47;;
76477;SDS011;65309;49.790;18.972;2023-04-24T02:56:41;4.25;;;2.80;;
76477;SDS011;65309;49.790;18.972;2023-04-24T03:01:42;5.68;;;3.50;;
76477;SDS011;65309;49.790;18.972;2023-04-24T03:06:45;6.40;;;3.65;;
76477;SDS011;65309;49.790;18.972;2023-04-24T03:11:48;4.90;;;3.60;;
76477;SDS011;65309;49.790;18.972;2023-04-24T03:16:51;4.03;;;2.80;;
76477;SDS011;65309;49.790;18.972;2023-04-24T03:21:53;3.85;;;3.35;;
76477;SDS011;65309;49.790;18.972;2023-04-24T03:26:56;5.35;;;2.80;;
76477;SDS011;65309;49.790;18.972;2023-04-24T03:31:58;4.22;;;3.15;;
76477;SDS011;65309;49.790;18.972;2023-04-24T03:37:00;4.63;;;3.28;;
76477;SDS011;65309;49.790;18.972;2023-04-24T03:42:04;3.53;;;3.05;;
76477;SDS011;65309;49.790;18.972;2023-04-24T03:47:06;3.72;;;3.10;;
76477;SDS011;65309;49.790;18.972;2023-04-24T03:52:08;5.07;;;3.67;;
76477;SDS011;65309;49.790;18.972;2023-04-24T03:57:11;3.38;;;2.88;;
76477;SDS011;65309;49.790;18.972;2023-04-24T04:02:13;4.32;;;3.22;;
76477;SDS011;65309;49.790;18.972;2023-04-24T04:07:15;5.05;;;3.03;;
76477;SDS011;65309;49.790;18.972;2023-04-24T04:12:19;4.93;;;2.88;;
76477;SDS011;65309;49.790;18.972;2023-04-24T04:17:21;3.97;;;3.17;;
76477;SDS011;65309;49.790;18.972;2023-04-24T04:22:23;4.75;;;3.50;;
76477;SDS011;65309;49.790;18.972;2023-04-24T04:27:27;6.13;;;3.08;;
76477;SDS011;65309;49.790;18.972;2023-04-24T04:32:30;5.03;;;3.08;;
76477;SDS011;65309;49.790;18.972;2023-04-24T04:42:36;4.43;;;2.88;;
76477;SDS011;65309;49.790;18.972;2023-04-24T04:47:42;5.00;;;3.00;;
76477;SDS011;65309;49.790;18.972;2023-04-24T04:52:44;4.72;;;3.53;;
76477;SDS011;65309;49.790;18.972;2023-04-24T04:57:47;4.82;;;3.33;;
76477;SDS011;65309;49.790;18.972;2023-04-24T05:02:49;3.47;;;2.97;;
76477;SDS011;65309;49.790;18.972;2023-04-24T05:07:51;5.00;;;4.03;;
76477;SDS011;65309;49.790;18.972;2023-04-24T05:12:55;4.38;;;3.95;;
76477;SDS011;65309;49.790;18.972;2023-04-24T05:17:57;4.43;;;2.97;;
76477;SDS011;65309;49.790;18.972;2023-04-24T05:22:59;6.57;;;3.08;;
76477;SDS011;65309;49.790;18.972;2023-04-24T05:28:02;3.05;;;2.10;;
76477;SDS011;65309;49.790;18.972;2023-04-24T05:33:04;5.18;;;3.03;;
76477;SDS011;65309;49.790;18.972;2023-04-24T05:38:07;4.47;;;2.45;;
76477;SDS011;65309;49.790;18.972;2023-04-24T05:43:10;6.00;;;4.00;;
76477;SDS011;65309;49.790;18.972;2023-04-24T05:48:12;4.95;;;3.58;;
76477;SDS011;65309;49.790;18.972;2023-04-24T05:53:14;7.38;;;4.10;;
76477;SDS011;65309;49.790;18.972;2023-04-24T05:58:18;13.90;;;4.13;;
76477;SDS011;65309;49.790;18.972;2023-04-24T06:03:20;7.72;;;4.10;;
76477;SDS011;65309;49.790;18.972;2023-04-24T06:08:22;5.35;;;3.80;;
76477;SDS011;65309;49.790;18.972;2023-04-24T06:13:25;3.90;;;3.50;;
76477;SDS011;65309;49.790;18.972;2023-04-24T06:18:27;3.97;;;3.38;;
76477;SDS011;65309;49.790;18.972;2023-04-24T06:23:29;6.00;;;3.47;;
76477;SDS011;65309;49.790;18.972;2023-04-24T06:28:35;6.88;;;3.50;;
76477;SDS011;65309;49.790;18.972;2023-04-24T06:33:37;6.25;;;3.58;;
76477;SDS011;65309;49.790;18.972;2023-04-24T06:38:39;9.45;;;3.53;;
76477;SDS011;65309;49.790;18.972;2023-04-24T06:43:42;4.93;;;3.33;;
76477;SDS011;65309;49.790;18.972;2023-04-24T06:48:45;14.27;;;3.60;;
76477;SDS011;65309;49.790;18.972;2023-04-24T06:53:47;5.22;;;3.67;;
76477;SDS011;65309;49.790;18.972;2023-04-24T06:58:51;5.28;;;3.25;;
76477;SDS011;65309;49.790;18.972;2023-04-24T07:03:53;4.03;;;3.50;;
76477;SDS011;65309;49.790;18.972;2023-04-24T07:08:55;4.20;;;3.78;;
76477;SDS011;65309;49.790;18.972;2023-04-24T07:13:59;4.45;;;3.33;;
76477;SDS011;65309;49.790;18.972;2023-04-24T07:19:01;6.30;;;3.30;;
76477;SDS011;65309;49.790;18.972;2023-04-24T07:29:07;5.18;;;4.50;;
76477;SDS011;65309;49.790;18.972;2023-04-24T07:34:10;4.68;;;3.45;;
76477;SDS011;65309;49.790;18.972;2023-04-24T07:39:12;5.72;;;3.72;;
76477;SDS011;65309;49.790;18.972;2023-04-24T07:44:15;6.25;;;3.00;;
76477;SDS011;65309;49.790;18.972;2023-04-24T07:49:17;13.18;;;4.43;;
76477;SDS011;65309;49.790;18.972;2023-04-24T07:54:20;5.25;;;3.75;;
76477;SDS011;65309;49.790;18.972;2023-04-24T07:59:24;9.95;;;3.92;;
76477;SDS011;65309;49.790;18.972;2023-04-24T08:04:26;8.57;;;4.07;;
76477;SDS011;65309;49.790;18.972;2023-04-24T08:09:28;5.15;;;3.75;;
76477;SDS011;65309;49.790;18.972;2023-04-24T08:19:35;5.63;;;3.90;;
76477;SDS011;65309;49.790;18.972;2023-04-24T08:24:37;6.05;;;4.18;;
76477;SDS011;65309;49.790;18.972;2023-04-24T08:29:40;5.30;;;3.70;;
76477;SDS011;65309;49.790;18.972;2023-04-24T08:34:43;5.93;;;3.65;;
76477;SDS011;65309;49.790;18.972;2023-04-24T08:39:45;4.97;;;3.40;;
76477;SDS011;65309;49.790;18.972;2023-04-24T08:44:49;6.97;;;3.15;;
76477;SDS011;65309;49.790;18.972;2023-04-24T08:49:51;4.47;;;3.00;;
76477;SDS011;65309;49.790;18.972;2023-04-24T08:54:54;3.78;;;3.00;;
76477;SDS011;65309;49.790;18.972;2023-04-24T08:59:58;5.40;;;3.25;;
76477;SDS011;65309;49.790;18.972;2023-04-24T09:05:00;4.85;;;3.60;;
76477;SDS011;65309;49.790;18.972;2023-04-24T09:10:05;4.18;;;3.53;;
76477;SDS011;65309;49.790;18.972;2023-04-24T09:15:10;4.05;;;3.60;;
76477;SDS011;65309;49.790;18.972;2023-04-24T09:20:13;8.85;;;3.70;;
76477;SDS011;65309;49.790;18.972;2023-04-24T09:25:15;4.03;;;3.40;;
76477;SDS011;65309;49.790;18.972;2023-04-24T09:30:21;4.10;;;3.38;;
76477;SDS011;65309;49.790;18.972;2023-04-24T09:35:24;5.07;;;3.75;;
76477;SDS011;65309;49.790;18.972;2023-04-24T09:45:31;6.20;;;4.00;;
76477;SDS011;65309;49.790;18.972;2023-04-24T09:50:37;5.20;;;3.70;;
76477;SDS011;65309;49.790;18.972;2023-04-24T10:00:44;6.00;;;4.03;;
76477;SDS011;65309;49.790;18.972;2023-04-24T10:05:47;5.20;;;3.75;;
76477;SDS011;65309;49.790;18.972;2023-04-24T10:15:52;4.45;;;3.97;;
76477;SDS011;65309;49.790;18.972;2023-04-24T10:20:55;4.07;;;3.67;;
76477;SDS011;65309;49.790;18.972;2023-04-24T10:25:59;6.32;;;4.00;;
76477;SDS011;65309;49.790;18.972;2023-04-24T10:31:03;4.57;;;3.67;;
76477;SDS011;65309;49.790;18.972;2023-04-24T10:36:06;8.30;;;4.00;;
76477;SDS011;65309;49.790;18.972;2023-04-24T10:41:09;7.82;;;4.07;;
76477;SDS011;65309;49.790;18.972;2023-04-24T10:46:20;4.40;;;3.95;;
76477;SDS011;65309;49.790;18.972;2023-04-24T10:51:23;4.95;;;4.13;;
76477;SDS011;65309;49.790;18.972;2023-04-24T10:56:26;8.82;;;4.18;;
76477;SDS011;65309;49.790;18.972;2023-04-24T11:01:29;4.70;;;4.00;;
76477;SDS011;65309;49.790;18.972;2023-04-24T11:06:34;4.50;;;4.10;;
76477;SDS011;65309;49.790;18.972;2023-04-24T11:11:38;4.32;;;3.78;;
76477;SDS011;65309;49.790;18.972;2023-04-24T11:16:51;4.63;;;3.72;;
76477;SDS011;65309;49.790;18.972;2023-04-24T11:21:54;6.47;;;4.63;;
76477;SDS011;65309;49.790;18.972;2023-04-24T11:27:05;4.68;;;3.15;;
76477;SDS011;65309;49.790;18.972;2023-04-24T11:32:18;9.02;;;6.60;;
76477;SDS011;65309;49.790;18.972;2023-04-24T11:37:33;7.55;;;5.85;;
76477;SDS011;65309;49.790;18.972;2023-04-24T11:42:37;10.18;;;5.72;;
76477;SDS011;65309;49.790;18.972;2023-04-24T11:47:42;9.63;;;6.90;;
76477;SDS011;65309;49.790;18.972;2023-04-24T11:52:46;6.35;;;5.22;;
76477;SDS011;65309;49.790;18.972;2023-04-24T11:57:50;5.90;;;4.75;;
76477;SDS011;65309;49.790;18.972;2023-04-24T12:03:04;5.93;;;4.15;;
76477;SDS011;65309;49.790;18.972;2023-04-24T12:08:07;6.38;;;4.95;;
76477;SDS011;65309;49.790;18.972;2023-04-24T12:13:09;6.65;;;5.80;;
76477;SDS011;65309;49.790;18.972;2023-04-24T12:18:14;7.43;;;5.93;;
76477;SDS011;65309;49.790;18.972;2023-04-24T12:23:33;8.60;;;5.30;;
76477;SDS011;65309;49.790;18.972;2023-04-24T12:28:35;7.53;;;4.85;;
76477;SDS011;65309;49.790;18.972;2023-04-24T12:33:40;6.55;;;3.75;;
76477;SDS011;65309;49.790;18.972;2023-04-24T12:38:43;3.92;;;3.08;;
76477;SDS011;65309;49.790;18.972;2023-04-24T12:43:51;4.13;;;2.88;;
76477;SDS011;65309;49.790;18.972;2023-04-24T12:48:55;3.25;;;2.92;;
76477;SDS011;65309;49.790;18.972;2023-04-24T12:53:57;3.90;;;2.83;;
76477;SDS011;65309;49.790;18.972;2023-04-24T12:58:59;4.05;;;2.90;;
76477;SDS011;65309;49.790;18.972;2023-04-24T13:04:02;7.68;;;3.95;;
76477;SDS011;65309;49.790;18.972;2023-04-24T13:09:05;4.55;;;3.70;;
76477;SDS011;65309;49.790;18.972;2023-04-24T13:14:07;4.63;;;3.67;;
76477;SDS011;65309;49.790;18.972;2023-04-24T13:19:10;4.65;;;3.45;;
76477;SDS011;65309;49.790;18.972;2023-04-24T13:24:12;6.88;;;4.03;;
76477;SDS011;65309;49.790;18.972;2023-04-24T13:29:14;9.05;;;4.18;;
76477;SDS011;65309;49.790;18.972;2023-04-24T13:34:18;3.97;;;3.55;;
76477;SDS011;65309;49.790;18.972;2023-04-24T13:39:20;4.53;;;4.00;;
76477;SDS011;65309;49.790;18.972;2023-04-24T13:44:22;4.90;;;4.28;;
76477;SDS011;65309;49.790;18.972;2023-04-24T13:49:26;9.27;;;4.50;;
76477;SDS011;65309;49.790;18.972;2023-04-24T13:54:28;5.35;;;4.82;;
76477;SDS011;65309;49.790;18.972;2023-04-24T13:59:31;9.88;;;4.93;;
76477;SDS011;65309;49.790;18.972;2023-04-24T14:04:34;21.45;;;12.40;;
76477;SDS011;65309;49.790;18.972;2023-04-24T14:09:36;5.93;;;3.88;;
76477;SDS011;65309;49.790;18.972;2023-04-24T14:14:38;6.63;;;5.60;;
76477;SDS011;65309;49.790;18.972;2023-04-24T14:19:42;9.95;;;6.68;;
76477;SDS011;65309;49.790;18.972;2023-04-24T14:24:44;10.85;;;7.95;;
76477;SDS011;65309;49.790;18.972;2023-04-24T14:29:46;11.07;;;8.98;;
76477;SDS011;65309;49.790;18.972;2023-04-24T14:34:49;13.32;;;10.63;;
76477;SDS011;65309;49.790;18.972;2023-04-24T14:39:51;8.77;;;5.80;;
76477;SDS011;65309;49.790;18.972;2023-04-24T14:45:12;7.40;;;5.13;;
76477;SDS011;65309;49.790;18.972;2023-04-24T14:50:15;6.35;;;5.10;;
76477;SDS011;65309;49.790;18.972;2023-04-24T14:55:17;7.75;;;5.28;;
76477;SDS011;65309;49.790;18.972;2023-04-24T15:00:21;5.93;;;4.85;;
76477;SDS011;65309;49.790;18.972;2023-04-24T15:05:27;6.32;;;4.18;;
76477;SDS011;65309;49.790;18.972;2023-04-24T15:10:29;6.13;;;3.88;;
76477;SDS011;65309;49.790;18.972;2023-04-24T15:15:31;8.00;;;4.63;;
76477;SDS011;65309;49.790;18.972;2023-04-24T15:20:34;4.80;;;4.30;;
76477;SDS011;65309;49.790;18.972;2023-04-24T15:25:39;6.47;;;4.70;;
76477;SDS011;65309;49.790;18.972;2023-04-24T15:30:41;6.50;;;4.47;;
76477;SDS011;65309;49.790;18.972;2023-04-24T15:35:45;4.95;;;3.83;;
76477;SDS011;65309;49.790;18.972;2023-04-24T15:40:47;6.63;;;4.30;;
76477;SDS011;65309;49.790;18.972;2023-04-24T15:45:49;5.45;;;4.53;;
76477;SDS011;65309;49.790;18.972;2023-04-24T15:50:53;5.15;;;4.00;;
76477;SDS011;65309;49.790;18.972;2023-04-24T15:55:55;6.45;;;4.72;;
76477;SDS011;65309;49.790;18.972;2023-04-24T16:00:58;5.35;;;4.57;;
76477;SDS011;65309;49.790;18.972;2023-04-24T16:06:02;5.75;;;4.03;;
76477;SDS011;65309;49.790;18.972;2023-04-24T16:11:04;5.57;;;4.10;;
76477;SDS011;65309;49.790;18.972;2023-04-24T16:16:06;6.80;;;5.47;;
76477;SDS011;65309;49.790;18.972;2023-04-24T16:21:10;5.50;;;4.45;;
76477;SDS011;65309;49.790;18.972;2023-04-24T16:26:12;4.90;;;4.13;;
76477;SDS011;65309;49.790;18.972;2023-04-24T16:31:14;4.95;;;3.78;;
76477;SDS011;65309;49.790;18.972;2023-04-24T16:36:17;8.77;;;5.05;;
76477;SDS011;65309;49.790;18.972;2023-04-24T16:41:21;4.80;;;3.78;;
76477;SDS011;65309;49.790;18.972;2023-04-24T16:46:23;4.90;;;3.95;;
76477;SDS011;65309;49.790;18.972;2023-04-24T16:51:26;8.05;;;5.85;;
76477;SDS011;65309;49.790;18.972;2023-04-24T16:56:29;5.78;;;4.75;;
76477;SDS011;65309;49.790;18.972;2023-04-24T17:01:31;5.38;;;4.07;;
76477;SDS011;65309;49.790;18.972;2023-04-24T17:06:35;7.55;;;4.70;;
76477;SDS011;65309;49.790;18.972;2023-04-24T17:11:37;5.22;;;3.90;;
76477;SDS011;65309;49.790;18.972;2023-04-24T17:16:39;6.22;;;5.20;;
76477;SDS011;65309;49.790;18.972;2023-04-24T17:26:45;7.03;;;4.32;;
76477;SDS011;65309;49.790;18.972;2023-04-24T17:31:47;6.50;;;5.53;;
76477;SDS011;65309;49.790;18.972;2023-04-24T17:36:51;7.13;;;5.47;;
76477;SDS011;65309;49.790;18.972;2023-04-24T17:41:53;9.68;;;6.03;;
76477;SDS011;65309;49.790;18.972;2023-04-24T17:46:55;7.45;;;5.22;;
76477;SDS011;65309;49.790;18.972;2023-04-24T17:51:58;10.27;;;6.18;;
76477;SDS011;65309;49.790;18.972;2023-04-24T17:57:00;6.53;;;5.78;;
76477;SDS011;65309;49.790;18.972;2023-04-24T18:02:02;7.68;;;5.28;;
76477;SDS011;65309;49.790;18.972;2023-04-24T18:07:06;8.93;;;6.10;;
76477;SDS011;65309;49.790;18.972;2023-04-24T18:12:08;8.43;;;6.10;;
76477;SDS011;65309;49.790;18.972;2023-04-24T18:17:11;9.52;;;6.30;;
76477;SDS011;65309;49.790;18.972;2023-04-24T18:22:14;11.98;;;6.20;;
76477;SDS011;65309;49.790;18.972;2023-04-24T18:27:16;7.35;;;5.35;;
76477;SDS011;65309;49.790;18.972;2023-04-24T18:32:19;9.70;;;5.32;;
76477;SDS011;65309;49.790;18.972;2023-04-24T18:37:23;5.20;;;4.45;;
76477;SDS011;65309;49.790;18.972;2023-04-24T18:42:25;7.63;;;5.03;;
76477;SDS011;65309;49.790;18.972;2023-04-24T18:47:27;9.38;;;6.63;;
76477;SDS011;65309;49.790;18.972;2023-04-24T18:52:31;12.35;;;9.10;;
76477;SDS011;65309;49.790;18.972;2023-04-24T18:57:33;11.23;;;7.40;;
76477;SDS011;65309;49.790;18.972;2023-04-24T19:02:35;12.68;;;7.30;;
76477;SDS011;65309;49.790;18.972;2023-04-24T19:07:39;13.82;;;8.23;;
76477;SDS011;65309;49.790;18.972;2023-04-24T19:12:42;14.75;;;8.73;;
76477;SDS011;65309;49.790;18.972;2023-04-24T19:17:44;12.32;;;8.60;;
76477;SDS011;65309;49.790;18.972;2023-04-24T19:22:50;12.85;;;9.40;;
76477;SDS011;65309;49.790;18.972;2023-04-24T19:27:52;14.30;;;10.20;;
76477;SDS011;65309;49.790;18.972;2023-04-24T19:32:55;15.40;;;10.60;;
76477;SDS011;65309;49.790;18.972;2023-04-24T19:37:58;15.15;;;10.10;;
76477;SDS011;65309;49.790;18.972;2023-04-24T19:43:01;16.33;;;11.68;;
76477;SDS011;65309;49.790;18.972;2023-04-24T19:48:03;19.70;;;12.55;;
76477;SDS011;65309;49.790;18.972;2023-04-24T19:53:07;22.60;;;14.50;;
76477;SDS011;65309;49.790;18.972;2023-04-24T19:58:09;21.52;;;14.82;;
76477;SDS011;65309;49.790;18.972;2023-04-24T20:03:11;20.30;;;14.05;;
76477;SDS011;65309;49.790;18.972;2023-04-24T20:08:27;25.60;;;16.13;;
76477;SDS011;65309;49.790;18.972;2023-04-24T20:13:29;25.42;;;14.40;;
76477;SDS011;65309;49.790;18.972;2023-04-24T20:18:33;20.42;;;14.52;;
76477;SDS011;65309;49.790;18.972;2023-04-24T20:23:36;26.92;;;14.63;;
76477;SDS011;65309;49.790;18.972;2023-04-24T20:28:38;17.52;;;10.52;;
76477;SDS011;65309;49.790;18.972;2023-04-24T20:33:40;12.18;;;7.68;;
76477;SDS011;65309;49.790;18.972;2023-04-24T20:38:43;8.57;;;5.55;;
76477;SDS011;65309;49.790;18.972;2023-04-24T20:43:47;6.88;;;4.63;;
76477;SDS011;65309;49.790;18.972;2023-04-24T20:48:50;6.07;;;3.60;;
76477;SDS011;65309;49.790;18.972;2023-04-24T20:53:53;8.38;;;4.57;;
76477;SDS011;65309;49.790;18.972;2023-04-24T20:58:55;5.97;;;3.63;;
76477;SDS011;65309;49.790;18.972;2023-04-24T21:03:58;8.70;;;5.70;;
76477;SDS011;65309;49.790;18.972;2023-04-24T21:09:01;11.57;;;6.90;;
76477;SDS011;65309;49.790;18.972;2023-04-24T21:14:04;9.95;;;7.35;;
76477;SDS011;65309;49.790;18.972;2023-04-24T21:19:06;10.57;;;7.93;;
76477;SDS011;65309;49.790;18.972;2023-04-24T21:24:10;15.52;;;10.88;;
76477;SDS011;65309;49.790;18.972;2023-04-24T21:29:12;12.90;;;8.50;;
76477;SDS011;65309;49.790;18.972;2023-04-24T21:34:14;14.95;;;11.00;;
76477;SDS011;65309;49.790;18.972;2023-04-24T21:39:17;22.20;;;11.95;;
76477;SDS011;65309;49.790;18.972;2023-04-24T21:44:19;16.50;;;9.98;;
76477;SDS011;65309;49.790;18.972;2023-04-24T21:49:21;17.35;;;10.63;;
76477;SDS011;65309;49.790;18.972;2023-04-24T21:54:25;12.70;;;8.40;;
76477;SDS011;65309;49.790;18.972;2023-04-24T21:59:27;14.55;;;8.57;;
76477;SDS011;65309;49.790;18.972;2023-04-24T22:04:30;15.60;;;9.70;;
76477;SDS011;65309;49.790;18.972;2023-04-24T22:09:33;14.07;;;9.75;;
76477;SDS011;65309;49.790;18.972;2023-04-24T22:14:35;15.63;;;8.80;;
76477;SDS011;65309;49.790;18.972;2023-04-24T22:19:37;13.50;;;8.25;;
76477;SDS011;65309;49.790;18.972;2023-04-24T22:24:42;15.63;;;10.07;;
76477;SDS011;65309;49.790;18.972;2023-04-24T22:29:44;14.43;;;9.63;;
76477;SDS011;65309;49.790;18.972;2023-04-24T22:34:46;12.43;;;8.02;;
76477;SDS011;65309;49.790;18.972;2023-04-24T22:39:49;13.45;;;8.75;;
76477;SDS011;65309;49.790;18.972;2023-04-24T22:44:51;12.20;;;8.32;;
76477;SDS011;65309;49.790;18.972;2023-04-24T22:49:54;11.62;;;7.84;;
76477;SDS011;65309;49.790;18.972;2023-04-24T22:54:58;13.48;;;8.82;;
76477;SDS011;65309;49.790;18.972;2023-04-24T23:00:01;11.88;;;7.82;;
76477;SDS011;65309;49.790;18.972;2023-04-24T23:05:04;4.93;;;3.85;;
76477;SDS011;65309;49.790;18.972;2023-04-24T23:15:11;11.20;;;6.85;;
76477;SDS011;65309;49.790;18.972;2023-04-24T23:20:13;13.23;;;7.72;;
76477;SDS011;65309;49.790;18.972;2023-04-24T23:25:17;13.45;;;8.02;;
76477;SDS011;65309;49.790;18.972;2023-04-24T23:30:19;11.27;;;7.35;;
76477;SDS011;65309;49.790;18.972;2023-04-24T23:35:21;11.70;;;7.50;;
76477;SDS011;65309;49.790;18.972;2023-04-24T23:40:25;13.68;;;6.60;;
76477;SDS011;65309;49.790;18.972;2023-04-24T23:45:27;11.35;;;7.90;;
76477;SDS011;65309;49.790;18.972;2023-04-24T23:50:29;14.63;;;9.13;;
76477;SDS011;65309;49.790;18.972;2023-04-24T23:55:32;13.18;;;9.07;;
